createdAt,value
2022-11-11T00:00:49.641Z,11.93
2022-11-11T00:03:11.083Z,9.73
2022-11-11T00:05:34.619Z,13.10
2022-11-11T00:07:59.475Z,11.95
2022-11-11T00:10:21.216Z,8.15
2022-11-11T00:12:42.628Z,10.63
2022-11-11T00:15:04.648Z,11.43
2022-11-11T00:17:43.700Z,8.60
2022-11-11T00:20:24.701Z,9.43
2022-11-11T00:23:04.597Z,9.35
2022-11-11T00:25:27.834Z,7.30
2022-11-11T00:27:49.433Z,8.00
2022-11-11T00:30:11.732Z,8.02
2022-11-11T00:32:34.000Z,7.30
2022-11-11T00:35:14.873Z,6.68
2022-11-11T00:37:37.062Z,5.70
2022-11-11T00:39:58.746Z,6.13
2022-11-11T00:42:22.414Z,5.95
2022-11-11T00:44:44.473Z,5.88
2022-11-11T00:47:23.821Z,5.95
2022-11-11T00:50:02.777Z,7.65
2022-11-11T00:52:24.423Z,7.75
2022-11-11T00:54:45.961Z,6.78
2022-11-11T00:57:07.730Z,6.63
2022-11-11T00:59:30.779Z,6.60
2022-11-11T01:01:52.187Z,6.78
2022-11-11T01:04:13.838Z,6.70
2022-11-11T01:06:35.367Z,7.30
2022-11-11T01:08:57.107Z,8.55
2022-11-11T01:11:20.092Z,7.72
2022-11-11T01:13:42.116Z,8.25
2022-11-11T01:16:09.893Z,9.85
2022-11-11T01:18:31.584Z,8.75
2022-11-11T01:21:06.043Z,9.80
2022-11-11T01:23:28.316Z,10.77
2022-11-11T01:25:49.750Z,9.82
2022-11-11T01:28:11.341Z,8.30
2022-11-11T01:30:33.994Z,8.38
2022-11-11T01:32:56.619Z,7.50
2022-11-11T01:35:18.298Z,8.88
2022-11-11T01:37:40.079Z,7.70
2022-11-11T01:40:01.942Z,7.68
2022-11-11T01:42:23.718Z,9.68
2022-11-11T01:44:48.164Z,8.93
2022-11-11T01:47:10.037Z,7.40
2022-11-11T01:49:35.015Z,8.70
2022-11-11T01:52:00.774Z,9.65
2022-11-11T01:54:25.548Z,8.65
2022-11-11T01:56:49.918Z,10.38
2022-11-11T01:59:14.109Z,10.13
2022-11-11T02:01:36.426Z,9.55
2022-11-11T02:04:16.043Z,9.82
2022-11-11T02:06:39.874Z,7.82
2022-11-11T02:09:02.122Z,7.05
2022-11-11T02:11:39.478Z,8.13
2022-11-11T02:14:18.531Z,7.10
2022-11-11T02:16:40.241Z,8.10
2022-11-11T02:19:02.731Z,6.80
2022-11-11T02:21:29.892Z,13.73
2022-11-11T02:23:59.958Z,9.23
2022-11-11T02:26:22.303Z,10.55
2022-11-11T02:28:44.198Z,9.80
2022-11-11T02:31:06.158Z,6.63
2022-11-11T02:33:28.278Z,11.02
2022-11-11T02:35:56.301Z,7.75
2022-11-11T02:38:18.105Z,7.00
2022-11-11T02:41:03.379Z,8.50
2022-11-11T02:43:25.641Z,5.95
2022-11-11T02:45:47.422Z,7.32
2022-11-11T02:48:09.360Z,8.48
2022-11-11T02:50:31.064Z,6.65
2022-11-11T02:52:52.726Z,7.47
2022-11-11T02:55:14.618Z,6.68
2022-11-11T02:57:37.747Z,5.90
2022-11-11T03:00:01.234Z,5.80
2022-11-11T03:02:27.948Z,5.68
2022-11-11T03:04:49.937Z,5.80
2022-11-11T03:07:11.636Z,6.18
2022-11-11T03:09:33.739Z,8.20
2022-11-11T03:11:55.295Z,7.40
2022-11-11T03:14:18.799Z,5.65
2022-11-11T03:16:58.205Z,6.43
2022-11-11T03:19:20.505Z,5.80
2022-11-11T03:24:22.991Z,5.55
2022-11-11T03:26:43.216Z,6.10
2022-11-11T03:29:05.492Z,5.28
2022-11-11T03:31:28.449Z,6.15
2022-11-11T03:33:50.516Z,4.88
2022-11-11T03:36:12.083Z,4.70
2022-11-11T03:38:32.852Z,4.25
2022-11-11T03:40:56.686Z,4.35
2022-11-11T03:43:19.993Z,4.65
2022-11-11T03:45:41.969Z,4.00
2022-11-11T03:48:05.790Z,4.43
2022-11-11T03:50:27.555Z,4.88
2022-11-11T03:52:49.552Z,5.28
2022-11-11T03:55:11.157Z,4.25
2022-11-11T03:57:32.957Z,5.20
2022-11-11T03:59:54.565Z,3.85
2022-11-11T04:02:33.701Z,4.50
2022-11-11T04:05:14.248Z,4.20
2022-11-11T04:07:53.786Z,5.90
2022-11-11T04:10:24.282Z,4.95
2022-11-11T04:13:03.184Z,4.80
2022-11-11T04:15:42.422Z,4.30
2022-11-11T04:18:04.531Z,4.45
2022-11-11T04:20:45.109Z,7.20
2022-11-11T04:23:06.936Z,6.70
2022-11-11T04:25:46.159Z,7.78
2022-11-11T04:28:25.188Z,7.05
2022-11-11T04:30:46.776Z,5.30
2022-11-11T04:33:07.466Z,5.40
2022-11-11T04:35:30.669Z,5.47
2022-11-11T04:37:52.015Z,5.82
2022-11-11T04:40:31.780Z,5.55
2022-11-11T04:42:54.477Z,5.15
2022-11-11T04:45:36.109Z,4.25
2022-11-11T04:47:59.715Z,4.32
2022-11-11T04:50:21.548Z,3.60
2022-11-11T04:52:45.332Z,5.00
2022-11-11T04:55:25.427Z,4.40
2022-11-11T04:57:48.857Z,5.30
2022-11-11T05:00:12.345Z,4.85
2022-11-11T05:02:51.306Z,6.65
2022-11-11T05:05:13.418Z,5.45
2022-11-11T05:07:52.866Z,3.90
2022-11-11T05:10:16.447Z,4.50
2022-11-11T05:12:38.287Z,4.50
2022-11-11T05:15:17.219Z,4.13
2022-11-11T05:17:56.494Z,4.43
2022-11-11T05:20:38.920Z,3.60
2022-11-11T05:23:00.910Z,3.72
2022-11-11T05:25:25.770Z,3.97
2022-11-11T05:27:47.277Z,3.53
2022-11-11T05:30:11.172Z,3.65
2022-11-11T05:32:32.837Z,4.18
2022-11-11T05:34:55.064Z,5.25
2022-11-11T05:37:17.804Z,5.07
2022-11-11T05:39:39.451Z,4.40
2022-11-11T05:42:02.681Z,4.20
2022-11-11T05:44:24.789Z,4.25
2022-11-11T05:46:46.221Z,4.20
2022-11-11T05:49:16.982Z,4.20
2022-11-11T05:51:39.307Z,3.65
2022-11-11T05:54:00.900Z,3.78
2022-11-11T05:56:22.582Z,3.25
2022-11-11T05:58:50.376Z,3.50
2022-11-11T06:01:12.234Z,4.63
2022-11-11T06:03:34.047Z,5.10
2022-11-11T06:05:55.582Z,5.90
2022-11-11T06:08:18.376Z,5.15
2022-11-11T06:10:39.924Z,5.35
2022-11-11T06:13:05.229Z,4.97
2022-11-11T06:15:28.317Z,4.20
2022-11-11T06:17:49.573Z,4.95
2022-11-11T06:20:11.993Z,4.35
2022-11-11T06:22:49.630Z,3.90
2022-11-11T06:25:28.737Z,4.90
2022-11-11T06:27:50.492Z,4.50
2022-11-11T06:32:56.491Z,4.28
2022-11-11T06:35:17.873Z,4.07
2022-11-11T06:37:39.256Z,4.60
2022-11-11T06:40:00.807Z,5.03
2022-11-11T06:42:22.672Z,5.45
2022-11-11T06:44:44.464Z,5.22
2022-11-11T06:47:06.116Z,4.60
2022-11-11T06:49:29.081Z,5.00
2022-11-11T06:51:50.629Z,4.85
2022-11-11T06:54:11.962Z,5.13
2022-11-11T06:56:33.617Z,5.97
2022-11-11T06:58:54.858Z,5.22
2022-11-11T07:01:16.310Z,6.20
2022-11-11T07:03:38.448Z,5.70
2022-11-11T07:06:03.286Z,5.80
2022-11-11T07:08:25.432Z,5.75
2022-11-11T07:10:48.831Z,7.57
2022-11-11T07:13:11.687Z,7.80
2022-11-11T07:15:34.256Z,6.55
2022-11-11T07:17:55.861Z,6.32
2022-11-11T07:20:17.296Z,5.97
2022-11-11T07:22:40.640Z,6.55
2022-11-11T07:25:02.425Z,6.40
2022-11-11T07:27:25.182Z,6.25
2022-11-11T07:29:48.543Z,5.53
2022-11-11T07:32:10.268Z,6.65
2022-11-11T07:34:32.744Z,6.68
2022-11-11T07:36:54.313Z,6.50
2022-11-11T07:39:17.171Z,7.22
2022-11-11T07:41:38.680Z,7.43
2022-11-11T07:44:00.186Z,7.90
2022-11-11T07:46:21.622Z,7.50
2022-11-11T07:48:43.188Z,7.65
2022-11-11T07:51:04.543Z,7.25
2022-11-11T07:53:28.304Z,7.43
2022-11-11T07:55:51.328Z,7.03
2022-11-11T07:58:13.018Z,6.90
2022-11-11T08:00:34.614Z,7.10
2022-11-11T08:02:58.961Z,6.72
2022-11-11T08:05:21.252Z,6.65
2022-11-11T08:07:43.368Z,6.78
2022-11-11T08:10:05.054Z,6.47
2022-11-11T08:12:45.693Z,5.85
2022-11-11T08:15:08.532Z,7.20
2022-11-11T08:17:30.458Z,7.20
2022-11-11T08:19:51.749Z,6.35
2022-11-11T08:22:13.363Z,7.78
2022-11-11T08:27:16.549Z,6.68
2022-11-11T08:29:39.267Z,6.97
2022-11-11T08:32:00.924Z,7.32
2022-11-11T08:34:24.829Z,6.90
2022-11-11T08:36:46.445Z,7.15
2022-11-11T08:39:08.439Z,7.32
2022-11-11T08:41:33.118Z,7.18
2022-11-11T08:43:55.327Z,7.53
2022-11-11T08:46:18.009Z,6.10
2022-11-11T08:48:40.126Z,6.93
2022-11-11T08:51:02.048Z,7.38
2022-11-11T08:53:24.143Z,7.47
2022-11-11T08:55:46.345Z,7.55
2022-11-11T08:58:08.279Z,6.60
2022-11-11T09:00:30.165Z,6.90
2022-11-11T09:02:53.079Z,6.78
2022-11-11T09:05:14.810Z,8.00
2022-11-11T09:07:36.656Z,6.95
2022-11-11T09:09:58.081Z,7.53
2022-11-11T09:12:19.781Z,8.50
2022-11-11T09:14:41.098Z,7.53
2022-11-11T09:17:02.767Z,7.33
2022-11-11T09:19:25.648Z,8.20
2022-11-11T09:21:47.544Z,7.90
2022-11-11T09:24:09.336Z,9.40
2022-11-11T09:26:31.128Z,9.23
2022-11-11T09:28:52.514Z,8.37
2022-11-11T09:33:55.667Z,7.63
2022-11-11T09:36:18.649Z,7.23
2022-11-11T09:38:40.340Z,6.90
2022-11-11T09:41:13.787Z,6.60
2022-11-11T09:43:42.122Z,7.50
2022-11-11T09:46:17.366Z,7.50
2022-11-11T09:48:51.965Z,7.43
2022-11-11T09:51:19.826Z,11.63
2022-11-11T09:53:45.366Z,8.80
2022-11-11T09:56:29.755Z,11.03
2022-11-11T09:58:53.979Z,11.80
2022-11-11T10:01:19.697Z,10.20
2022-11-11T10:03:43.672Z,10.67
2022-11-11T10:06:08.927Z,6.00
2022-11-11T10:08:34.546Z,6.57
2022-11-11T10:10:57.858Z,6.10
2022-11-11T10:13:23.415Z,5.70
2022-11-11T10:15:58.147Z,5.73
2022-11-11T10:18:41.935Z,6.13
2022-11-11T10:21:07.009Z,5.70
2022-11-11T10:23:33.336Z,5.60
2022-11-11T10:25:56.442Z,6.80
2022-11-11T10:28:19.456Z,5.27
2022-11-11T10:30:40.960Z,5.03
2022-11-11T10:33:05.147Z,5.00
2022-11-11T10:35:27.769Z,5.23
2022-11-11T10:37:55.252Z,4.73
2022-11-11T10:40:22.586Z,4.60
2022-11-11T10:42:44.437Z,4.50
2022-11-11T10:45:13.961Z,4.87
2022-11-11T10:47:44.000Z,4.87
2022-11-11T10:50:10.801Z,4.80
2022-11-11T10:52:35.144Z,5.00
2022-11-11T10:55:01.911Z,4.77
2022-11-11T10:57:31.236Z,4.03
2022-11-11T10:59:55.486Z,4.13
2022-11-11T11:02:21.752Z,4.60
2022-11-11T11:04:47.483Z,4.50
2022-11-11T11:07:12.343Z,3.87
2022-11-11T11:09:39.269Z,5.17
2022-11-11T11:12:04.585Z,4.70
2022-11-11T11:14:30.886Z,4.40
2022-11-11T11:16:55.746Z,3.90
2022-11-11T11:19:21.581Z,4.00
2022-11-11T11:21:54.278Z,8.83
2022-11-11T11:24:21.063Z,7.87
2022-11-11T11:26:45.608Z,5.47
2022-11-11T11:29:07.256Z,5.00
2022-11-11T11:31:38.514Z,4.00
2022-11-11T11:34:00.005Z,6.13
2022-11-11T11:36:21.717Z,3.70
2022-11-11T11:38:46.553Z,4.33
2022-11-11T11:41:08.526Z,3.87
2022-11-11T11:43:37.523Z,4.20
2022-11-11T11:46:06.929Z,4.10
2022-11-11T11:48:41.471Z,3.90
2022-11-11T11:51:15.430Z,3.50
2022-11-11T11:53:46.448Z,3.90
2022-11-11T11:56:16.980Z,3.60
2022-11-11T11:58:44.260Z,4.40
2022-11-11T12:01:12.834Z,3.97
2022-11-11T12:04:06.199Z,3.70
2022-11-11T12:06:34.564Z,3.70
2022-11-11T12:09:11.105Z,3.80
2022-11-11T12:11:37.182Z,3.60
2022-11-11T12:14:24.398Z,3.00
2022-11-11T12:16:51.504Z,3.43
2022-11-11T12:19:28.014Z,4.00
2022-11-11T12:22:02.920Z,3.30
2022-11-11T12:24:36.575Z,3.57
2022-11-11T12:27:05.434Z,3.63
2022-11-11T12:29:40.434Z,3.60
2022-11-11T12:32:15.923Z,3.13
2022-11-11T12:34:55.996Z,3.30
2022-11-11T12:37:22.098Z,4.17
2022-11-11T12:40:00.568Z,3.83
2022-11-11T12:42:32.908Z,3.10
2022-11-11T12:45:01.497Z,3.13
2022-11-11T12:47:38.507Z,3.50
2022-11-11T12:50:09.203Z,3.37
2022-11-11T12:52:40.143Z,3.33
2022-11-11T12:55:14.245Z,2.80
2022-11-11T12:57:39.630Z,2.97
2022-11-11T13:00:06.956Z,3.20
2022-11-11T13:02:53.659Z,3.07
2022-11-11T13:05:20.620Z,2.97
2022-11-11T13:08:08.914Z,2.67
2022-11-11T13:10:34.895Z,2.50
2022-11-11T13:13:03.926Z,3.20
2022-11-11T13:15:27.250Z,3.30
2022-11-11T13:17:48.843Z,2.90
2022-11-11T13:20:20.984Z,2.90
2022-11-11T13:22:42.859Z,3.07
2022-11-11T13:25:09.659Z,3.20
2022-11-11T13:27:39.346Z,2.70
2022-11-11T13:30:18.504Z,3.40
2022-11-11T13:32:43.121Z,2.90
2022-11-11T13:35:26.039Z,2.60
2022-11-11T13:37:47.850Z,2.90
2022-11-11T13:40:25.233Z,3.20
2022-11-11T13:42:50.815Z,2.80
2022-11-11T13:45:25.485Z,2.73
2022-11-11T13:47:48.677Z,4.00
2022-11-11T13:50:14.961Z,2.97
2022-11-11T13:52:40.221Z,2.90
2022-11-11T13:55:04.161Z,3.10
2022-11-11T13:57:28.658Z,3.37
2022-11-11T13:59:58.139Z,3.20
2022-11-11T14:02:37.252Z,3.30
2022-11-11T14:05:26.973Z,2.70
2022-11-11T14:07:56.355Z,3.07
2022-11-11T14:10:45.418Z,3.10
2022-11-11T14:13:37.370Z,3.30
2022-11-11T14:15:59.341Z,2.90
2022-11-11T14:18:38.110Z,3.20
2022-11-11T14:20:59.910Z,3.23
2022-11-11T14:23:40.092Z,3.20
2022-11-11T14:26:28.951Z,2.90
2022-11-11T14:28:54.311Z,3.50
2022-11-11T14:31:47.309Z,3.57
2022-11-11T14:34:22.101Z,3.50
2022-11-11T14:36:47.887Z,4.20
2022-11-11T14:39:20.100Z,3.87
2022-11-11T14:41:47.778Z,3.30
2022-11-11T14:44:40.132Z,3.30
2022-11-11T14:47:25.669Z,4.93
2022-11-11T14:49:48.265Z,3.50
2022-11-11T14:52:19.721Z,4.30
2022-11-11T14:54:52.562Z,3.80
2022-11-11T14:57:22.043Z,3.37
2022-11-11T14:59:43.828Z,4.03
2022-11-11T15:02:05.928Z,4.20
2022-11-11T15:04:28.616Z,5.43
2022-11-11T15:06:55.413Z,6.90
2022-11-11T15:09:41.442Z,6.27
2022-11-11T15:12:10.372Z,4.80
2022-11-11T15:14:36.640Z,15.90
2022-11-11T15:17:09.665Z,31.80
2022-11-11T15:19:42.405Z,70.80
2022-11-11T15:22:14.404Z,41.30
2022-11-11T15:24:43.839Z,14.13
2022-11-11T15:27:16.525Z,8.90
2022-11-11T15:29:57.490Z,12.83
2022-11-11T15:32:25.259Z,10.23
2022-11-11T15:34:52.137Z,8.30
2022-11-11T15:37:15.715Z,5.77
2022-11-11T15:39:41.150Z,17.50
2022-11-11T15:42:03.783Z,12.57
2022-11-11T15:44:28.513Z,10.23
2022-11-11T15:46:50.702Z,15.93
2022-11-11T15:49:16.135Z,20.97
2022-11-11T15:51:38.153Z,9.30
2022-11-11T15:54:19.779Z,10.73
2022-11-11T15:56:41.223Z,9.40
2022-11-11T15:59:17.663Z,9.50
2022-11-11T16:01:41.774Z,10.33
2022-11-11T16:04:03.862Z,12.13
2022-11-11T16:06:25.850Z,12.83
2022-11-11T16:08:51.883Z,14.63
2022-11-11T16:11:15.592Z,14.13
2022-11-11T16:13:39.755Z,12.87
2022-11-11T16:16:04.685Z,11.07
2022-11-11T16:18:30.097Z,9.30
2022-11-11T16:20:54.523Z,9.63
2022-11-11T16:23:18.544Z,8.87
2022-11-11T16:25:40.055Z,7.43
2022-11-11T16:28:02.067Z,8.33
2022-11-11T16:30:32.719Z,7.43
2022-11-11T16:32:54.217Z,7.10
2022-11-11T16:35:32.454Z,8.00
2022-11-11T16:37:55.617Z,8.67
2022-11-11T16:40:30.020Z,40.47
2022-11-11T16:42:52.337Z,50.00
2022-11-11T16:45:20.946Z,33.90
2022-11-11T16:47:45.091Z,24.20
2022-11-11T16:50:08.136Z,17.10
2022-11-11T16:52:31.801Z,19.10
2022-11-11T16:54:57.383Z,15.63
2022-11-11T16:57:20.384Z,15.90
2022-11-11T16:59:44.497Z,15.60
2022-11-11T17:02:16.811Z,16.10
2022-11-11T17:04:48.131Z,15.57
2022-11-11T17:07:29.895Z,13.07
2022-11-11T17:09:56.378Z,11.20
2022-11-11T17:12:31.610Z,9.63
2022-11-11T17:14:55.692Z,9.83
2022-11-11T17:17:17.435Z,10.40
2022-11-11T17:19:39.050Z,9.77
2022-11-11T17:22:12.204Z,8.97
2022-11-11T17:24:33.788Z,8.20
2022-11-11T17:26:57.469Z,7.83
2022-11-11T17:29:19.241Z,7.20
2022-11-11T17:31:41.203Z,8.00
2022-11-11T17:34:07.384Z,7.53
2022-11-11T17:36:29.267Z,6.90
2022-11-11T17:38:51.091Z,7.93
2022-11-11T17:41:15.298Z,20.87
2022-11-11T17:43:38.714Z,25.73
2022-11-11T17:46:01.868Z,17.73
2022-11-11T17:48:23.376Z,13.37
2022-11-11T17:50:45.299Z,15.00
2022-11-11T17:53:09.895Z,16.23
2022-11-11T17:55:34.646Z,13.90
2022-11-11T17:57:56.851Z,15.10
2022-11-11T18:00:20.141Z,29.40
2022-11-11T18:02:41.393Z,23.10
2022-11-11T18:05:03.058Z,14.90
2022-11-11T18:07:25.009Z,12.40
2022-11-11T18:09:46.411Z,13.83
2022-11-11T18:12:08.407Z,10.10
2022-11-11T18:14:30.188Z,10.43
2022-11-11T18:16:53.344Z,11.87
2022-11-11T18:19:15.206Z,12.23
2022-11-11T18:21:41.990Z,9.67
2022-11-11T18:24:06.856Z,10.80
2022-11-11T18:26:28.701Z,15.67
2022-11-11T18:28:50.700Z,22.70
2022-11-11T18:31:14.521Z,30.93
2022-11-11T18:33:38.960Z,19.00
2022-11-11T18:36:05.074Z,26.53
2022-11-11T18:38:29.997Z,31.60
2022-11-11T18:40:51.522Z,22.80
2022-11-11T18:43:13.438Z,23.87
2022-11-11T18:45:36.940Z,15.30
2022-11-11T18:47:58.560Z,14.53
2022-11-11T18:50:21.840Z,15.57
2022-11-11T18:52:43.770Z,14.17
2022-11-11T18:55:06.345Z,11.60
2022-11-11T18:57:28.843Z,10.40
2022-11-11T18:59:52.070Z,12.70
2022-11-11T19:02:14.303Z,12.07
2022-11-11T19:04:36.202Z,12.37
2022-11-11T19:07:00.076Z,11.90
2022-11-11T19:09:23.661Z,12.50
2022-11-11T19:11:47.910Z,23.37
2022-11-11T19:14:11.292Z,15.40
2022-11-11T19:16:33.594Z,13.23
2022-11-11T19:18:55.386Z,11.70
2022-11-11T19:21:18.310Z,11.60
2022-11-11T19:23:41.985Z,12.67
2022-11-11T19:26:03.549Z,11.80
2022-11-11T19:28:25.290Z,12.43
2022-11-11T19:30:47.120Z,17.27
2022-11-11T19:33:09.624Z,22.57
2022-11-11T19:35:31.798Z,29.80
2022-11-11T19:37:53.652Z,27.20
2022-11-11T19:40:17.193Z,19.00
2022-11-11T19:42:38.776Z,17.42
2022-11-11T19:45:00.258Z,17.13
2022-11-11T19:47:21.756Z,15.80
2022-11-11T19:49:43.414Z,13.77
2022-11-11T19:52:05.141Z,12.83
2022-11-11T19:54:27.187Z,12.27
2022-11-11T19:56:50.426Z,13.02
2022-11-11T19:59:12.596Z,16.30
2022-11-11T20:01:35.210Z,15.37
2022-11-11T20:03:58.782Z,14.15
2022-11-11T20:06:23.746Z,11.48
2022-11-11T20:08:45.607Z,11.10
2022-11-11T20:11:09.310Z,13.05
2022-11-11T20:13:32.549Z,14.00
2022-11-11T20:15:54.305Z,14.40
2022-11-11T20:18:17.258Z,12.40
2022-11-11T20:20:38.722Z,15.13
2022-11-11T20:23:00.232Z,15.77
2022-11-11T20:25:22.729Z,15.70
2022-11-11T20:27:44.226Z,17.98
2022-11-11T20:30:08.387Z,18.57
2022-11-11T20:32:30.469Z,16.85
2022-11-11T20:34:52.086Z,16.15
2022-11-11T20:37:13.856Z,13.97
2022-11-11T20:39:35.753Z,17.85
2022-11-11T20:41:57.665Z,20.45
2022-11-11T20:44:19.238Z,17.92
2022-11-11T20:46:42.742Z,17.03
2022-11-11T20:49:05.576Z,14.33
2022-11-11T20:51:27.702Z,13.88
2022-11-11T20:53:49.602Z,15.23
2022-11-11T20:56:12.991Z,13.32
2022-11-11T20:58:35.838Z,15.75
2022-11-11T21:01:02.418Z,17.20
2022-11-11T21:03:25.952Z,13.40
2022-11-11T21:05:47.972Z,13.13
2022-11-11T21:08:09.835Z,13.73
2022-11-11T21:10:31.573Z,12.70
2022-11-11T21:12:53.850Z,12.20
2022-11-11T21:15:15.644Z,12.40
2022-11-11T21:17:37.776Z,12.02
2022-11-11T21:20:01.418Z,12.40
2022-11-11T21:22:23.407Z,12.07
2022-11-11T21:24:46.052Z,12.38
2022-11-11T21:27:07.821Z,11.57
2022-11-11T21:29:30.042Z,10.60
2022-11-11T21:31:52.980Z,29.45
2022-11-11T21:34:17.507Z,10.98
2022-11-11T21:36:43.104Z,12.00
2022-11-11T21:39:06.662Z,11.80
2022-11-11T21:41:29.005Z,10.32
2022-11-11T21:43:56.520Z,10.30
2022-11-11T21:46:20.675Z,11.98
2022-11-11T21:48:55.707Z,10.95
2022-11-11T21:51:23.660Z,11.50
2022-11-11T21:53:56.766Z,10.93
2022-11-11T21:56:25.536Z,12.50
2022-11-11T21:58:51.715Z,13.20
2022-11-11T22:01:15.298Z,16.15
2022-11-11T22:03:40.989Z,16.92
2022-11-11T22:06:07.937Z,14.90
2022-11-11T22:08:30.609Z,18.55
2022-11-11T22:10:55.368Z,40.63
2022-11-11T22:13:18.412Z,18.15
2022-11-11T22:15:40.715Z,13.13
2022-11-11T22:18:05.288Z,15.02
2022-11-11T22:20:38.626Z,21.52
2022-11-11T22:23:02.082Z,25.35
2022-11-11T22:25:30.151Z,16.77
2022-11-11T22:27:56.750Z,25.60
2022-11-11T22:30:20.579Z,42.78
2022-11-11T22:32:44.358Z,22.70
2022-11-11T22:35:08.410Z,18.85
2022-11-11T22:37:31.510Z,13.77
2022-11-11T22:39:54.971Z,15.73
2022-11-11T22:42:21.606Z,14.05
2022-11-11T22:44:46.380Z,12.02
2022-11-11T22:47:10.113Z,16.25
2022-11-11T22:49:34.850Z,14.25
2022-11-11T22:52:00.111Z,12.75
2022-11-11T22:54:23.844Z,12.82
2022-11-11T22:56:47.764Z,9.93
2022-11-11T22:59:11.614Z,11.20
2022-11-11T23:01:41.801Z,14.30
2022-11-11T23:04:06.289Z,12.55
2022-11-11T23:06:30.822Z,9.90
2022-11-11T23:08:52.830Z,10.65
2022-11-11T23:11:15.749Z,10.85
2022-11-11T23:13:38.366Z,11.07
2022-11-11T23:16:00.307Z,9.35
2022-11-11T23:18:24.758Z,10.43
2022-11-11T23:20:54.362Z,12.75
2022-11-11T23:23:16.174Z,11.68
2022-11-11T23:25:38.114Z,16.73
2022-11-11T23:28:02.799Z,15.00
2022-11-11T23:30:24.611Z,14.65
2022-11-11T23:32:46.737Z,13.38
2022-11-11T23:35:10.864Z,15.07
2022-11-11T23:37:32.810Z,15.40
2022-11-11T23:39:55.154Z,15.10
2022-11-11T23:42:17.119Z,14.60
2022-11-11T23:44:39.344Z,13.30
2022-11-11T23:47:01.847Z,16.42
2022-11-11T23:49:24.558Z,19.45
2022-11-11T23:51:52.766Z,15.30
2022-11-11T23:54:17.816Z,19.75
2022-11-11T23:56:39.504Z,14.10
2022-11-11T23:59:01.595Z,11.25
